Time;durP1;ratioP1;P1;durP2;ratioP2;P2;SDS_P1;SDS_P2;PMS_P1;PMS_P2;Temp;Humidity;BMP_temperature;BMP_pressure;BME280_temperature;BME280_humidity;BME280_pressure;Samples;Min_cycle;Max_cycle;Signal;HPM_P1;HPM_P2
2022/06/19 00:00:49;;;;;;;;;15.25;13.25;;;;;28.24;44.30;100382.50;6278077;22;45156;-78
2022/06/19 00:03:37;;;;;;;;;14.75;13.25;;;;;27.99;44.00;100378.25;6249311;22;45459;-78
2022/06/19 00:06:03;;;;;;;;;13.50;10.50;;;;;27.80;44.47;100370.78;6278925;22;45424;-78
2022/06/19 00:08:29;;;;;;;;;11.25;11.25;;;;;27.60;44.68;100423.81;6279374;22;45275;-77
2022/06/19 00:10:55;;;;;;;;;9.50;9.50;;;;;27.32;44.87;100427.81;6279123;22;45978;-77
2022/06/19 00:13:21;;;;;;;;;10.00;10.00;;;;;27.08;45.37;100434.16;6279346;22;45183;-77
2022/06/19 00:15:46;;;;;;;;;12.00;10.75;;;;;26.89;45.72;100475.25;6279320;22;45156;-77
2022/06/19 00:18:12;;;;;;;;;9.50;9.50;;;;;26.71;46.24;100461.31;6279614;22;45316;-77
2022/06/19 00:20:38;;;;;;;;;10.75;9.75;;;;;26.56;45.91;100466.00;6251414;22;47541;-77
2022/06/19 00:23:04;;;;;;;;;12.00;10.75;;;;;26.38;45.60;100454.75;6279230;22;45161;-78
2022/06/19 00:25:29;;;;;;;;;10.25;9.50;;;;;26.24;46.18;100470.22;6277361;22;45349;-77
2022/06/19 00:27:55;;;;;;;;;11.25;11.25;;;;;26.11;46.04;100484.59;6251523;22;45181;-77
2022/06/19 00:30:21;;;;;;;;;9.00;7.75;;;;;26.02;46.48;100442.13;6251711;22;46269;-77
2022/06/19 00:32:46;;;;;;;;;9.25;7.75;;;;;25.88;46.13;100451.22;6279588;22;45340;-79
2022/06/19 00:35:12;;;;;;;;;6.00;6.00;;;;;25.71;46.14;100444.31;6251435;22;45278;-78
2022/06/19 00:37:38;;;;;;;;;8.75;7.25;;;;;25.55;45.97;100443.69;6251240;22;45628;-78
2022/06/19 00:40:07;;;;;;;;;8.00;6.25;;;;;25.38;46.09;100438.63;6279266;22;45370;-78
2022/06/19 00:42:33;;;;;;;;;6.00;6.00;;;;;25.19;46.68;100439.06;6251388;22;45269;-78
2022/06/19 00:44:58;;;;;;;;;7.75;7.75;;;;;25.03;46.78;100444.63;6251863;22;45298;-78
2022/06/19 00:47:33;;;;;;;;;7.00;6.75;;;;;24.90;46.98;100455.38;6279708;22;45145;-78
2022/06/19 00:50:25;;;;;;;;;10.00;8.75;;;;;24.73;46.93;100456.50;6278895;22;45387;-78
2022/06/19 00:52:50;;;;;;;;;9.50;8.00;;;;;24.45;46.93;100456.63;6251048;22;45252;-78
2022/06/19 00:55:20;;;;;;;;;7.50;7.25;;;;;24.21;46.71;100474.25;6279395;22;45441;-77
2022/06/19 00:57:50;;;;;;;;;9.00;7.75;;;;;24.09;47.21;100474.19;6279394;22;45281;-77
2022/06/19 01:00:26;;;;;;;;;9.75;9.75;;;;;23.95;47.10;100472.38;6279367;22;45221;-78
2022/06/19 01:02:59;;;;;;;;;10.00;7.75;;;;;23.79;47.49;100483.25;6278634;22;45248;-78
2022/06/19 01:05:26;;;;;;;;;14.50;9.50;;;;;23.62;47.69;100499.53;6278871;22;45204;-78
2022/06/19 01:07:52;;;;;;;;;11.75;10.00;;;;;23.46;48.01;100492.41;6276581;22;45181;-78
2022/06/19 01:10:18;;;;;;;;;16.75;12.50;;;;;23.30;47.98;100500.53;6279108;22;46022;-78
2022/06/19 01:12:48;;;;;;;;;13.25;12.25;;;;;23.18;48.22;100503.97;6279311;22;45175;-78
2022/06/19 01:15:19;;;;;;;;;13.00;10.75;;;;;23.06;48.23;100496.66;6250946;22;45289;-77
2022/06/19 01:17:47;;;;;;;;;13.25;12.25;;;;;22.94;48.58;100492.84;6278462;22;45443;-78
2022/06/19 01:20:15;;;;;;;;;11.00;11.00;;;;;22.84;48.30;100480.94;6276355;22;45919;-78
2022/06/19 01:23:11;;;;;;;;;16.25;13.00;;;;;22.61;48.46;100485.84;6278484;22;45212;-78
2022/06/19 01:25:39;;;;;;;;;10.00;9.75;;;;;22.45;48.97;100482.28;6252174;22;45389;-78
2022/06/19 01:30:57;;;;;;;;;12.25;12.25;;;;;22.25;48.96;100499.53;6279007;22;45239;-78
2022/06/19 01:33:28;;;;;;;;;13.00;11.00;;;;;22.14;49.40;100499.22;6276785;22;45390;-78
2022/06/19 01:35:56;;;;;;;;;14.75;13.25;;;;;22.09;49.34;100507.53;6279054;22;45346;-78
2022/06/19 01:38:24;;;;;;;;;14.25;12.25;;;;;22.02;49.61;100524.88;6276693;22;45444;-78
2022/06/19 01:41:00;;;;;;;;;16.75;15.00;;;;;21.98;49.85;100517.97;6276894;22;47275;-78
2022/06/19 01:43:26;;;;;;;;;10.50;9.50;;;;;21.96;49.56;100517.19;6278770;22;45323;-76
2022/06/19 01:45:55;;;;;;;;;12.50;11.50;;;;;21.91;49.68;100493.31;6277113;22;45255;-79
2022/06/19 01:48:22;;;;;;;;;12.50;10.75;;;;;21.82;49.00;100480.41;6278782;22;45187;-77
2022/06/19 01:50:49;;;;;;;;;15.75;13.00;;;;;21.69;49.35;100468.63;6278788;22;45461;-78
2022/06/19 01:53:31;;;;;;;;;12.00;11.00;;;;;21.57;49.79;100435.31;6250002;22;45291;-77
2022/06/19 01:55:57;;;;;;;;;11.75;11.75;;;;;21.50;49.90;100412.53;6279229;22;45084;-78
2022/06/19 01:58:27;;;;;;;;;15.75;13.75;;;;;21.47;49.99;100418.91;6278796;22;45168;-77
2022/06/19 02:00:53;;;;;;;;;13.50;13.50;;;;;21.43;49.70;100465.53;6278711;22;46392;-78
2022/06/19 02:03:30;;;;;;;;;12.00;10.00;;;;;21.39;50.22;100489.91;6250886;22;45381;-79
2022/06/19 02:05:57;;;;;;;;;16.00;14.25;;;;;21.35;50.66;100507.91;6279867;22;45168;-77
2022/06/19 02:08:24;;;;;;;;;14.00;14.00;;;;;21.31;50.34;100525.09;6250995;22;45438;-77
2022/06/19 02:10:50;;;;;;;;;10.00;10.00;;;;;21.27;50.58;100539.56;6278958;22;46656;-77
2022/06/19 02:13:20;;;;;;;;;15.75;12.50;;;;;21.27;50.25;100534.22;6278933;22;45310;-77
2022/06/19 02:15:48;;;;;;;;;18.00;11.75;;;;;21.26;50.81;100525.31;6277579;22;45212;-78
2022/06/19 02:18:21;;;;;;;;;15.25;13.25;;;;;21.29;50.56;100524.28;6279127;22;45168;-78
2022/06/19 02:20:50;;;;;;;;;14.25;12.25;;;;;21.30;50.34;100537.63;6276539;22;46443;-78
2022/06/19 02:23:19;;;;;;;;;9.00;8.75;;;;;21.26;50.58;100545.88;6278295;22;45283;-78
2022/06/19 02:25:45;;;;;;;;;14.50;12.00;;;;;21.28;50.49;100535.97;6276774;22;45322;-78
2022/06/19 02:28:12;;;;;;;;;13.50;12.75;;;;;21.27;50.79;100531.53;6278544;22;45599;-77
2022/06/19 02:30:38;;;;;;;;;14.00;14.00;;;;;21.26;51.03;100543.22;6278822;22;46167;-77
2022/06/19 02:33:06;;;;;;;;;13.75;13.50;;;;;21.24;50.62;100543.28;6251129;22;45195;-77
2022/06/19 02:35:31;;;;;;;;;13.00;11.00;;;;;21.26;50.65;100545.88;6250587;22;45368;-77
2022/06/19 02:37:57;;;;;;;;;13.75;10.00;;;;;21.24;50.71;100561.16;6278511;22;45442;-77
2022/06/19 02:40:38;;;;;;;;;15.50;11.50;;;;;21.24;50.86;100579.91;6278690;22;46060;-77
2022/06/19 02:43:10;;;;;;;;;18.50;13.25;;;;;21.23;50.76;100586.22;6278674;22;45251;-77
2022/06/19 02:45:39;;;;;;;;;15.25;12.75;;;;;21.19;51.18;100614.06;6278845;22;45378;-77
2022/06/19 02:48:05;;;;;;;;;14.25;13.00;;;;;21.16;50.78;100770.38;6278199;22;45434;-78
2022/06/19 02:50:34;;;;;;;;;18.50;13.75;;;;;21.13;50.62;100862.41;6250234;22;46986;-78
2022/06/19 02:52:59;;;;;;;;;12.00;10.00;;;;;21.05;51.04;100736.06;6250069;22;46177;-78
2022/06/19 02:55:25;;;;;;;;;13.00;10.50;;;;;21.02;51.44;100720.16;6278695;22;45086;-77
2022/06/19 02:57:51;;;;;;;;;12.00;10.00;;;;;21.00;51.18;100775.56;6278695;22;45211;-78
2022/06/19 03:00:25;;;;;;;;;14.25;10.00;;;;;21.04;51.22;100795.06;6250472;22;46505;-78
2022/06/19 03:02:54;;;;;;;;;13.75;11.50;;;;;21.02;51.28;100783.56;6250305;22;45466;-79
2022/06/19 03:05:24;;;;;;;;;11.00;11.00;;;;;20.96;51.35;100787.38;6250509;22;45355;-77
2022/06/19 03:07:50;;;;;;;;;13.00;10.00;;;;;20.91;51.33;100659.13;6277906;22;45177;-78
2022/06/19 03:10:16;;;;;;;;;8.00;6.50;;;;;20.85;51.27;100714.72;6249689;22;47889;-77
2022/06/19 03:12:42;;;;;;;;;9.00;7.25;;;;;20.86;51.80;100676.34;6278580;22;45211;-78
2022/06/19 03:15:08;;;;;;;;;15.00;10.25;;;;;20.88;51.69;100728.00;6278546;22;45182;-77
2022/06/19 03:17:34;;;;;;;;;10.00;10.00;;;;;20.89;51.38;100773.41;6278458;22;45153;-77
2022/06/19 03:19:59;;;;;;;;;10.75;10.00;;;;;20.91;51.90;100733.19;6277924;22;46282;-78
2022/06/19 03:22:25;;;;;;;;;12.25;11.25;;;;;20.88;51.79;100728.84;6278036;22;45327;-77
2022/06/19 03:24:50;;;;;;;;;14.50;12.00;;;;;20.90;51.95;100718.94;6276269;22;45377;-78
2022/06/19 03:27:15;;;;;;;;;15.25;13.50;;;;;20.89;51.79;100714.53;6276252;22;45820;-78
2022/06/19 03:29:41;;;;;;;;;15.25;11.75;;;;;20.87;51.62;100694.97;6249138;22;47541;-79
2022/06/19 03:32:12;;;;;;;;;14.50;14.50;;;;;20.81;52.13;100716.69;6250654;22;45196;-79
2022/06/19 03:34:38;;;;;;;;;12.25;9.75;;;;;20.74;51.54;100733.97;6250412;22;45268;-78
2022/06/19 03:37:04;;;;;;;;;14.50;14.25;;;;;20.74;51.84;100730.41;6277897;22;45114;-77
2022/06/19 03:39:29;;;;;;;;;15.00;10.50;;;;;20.74;51.58;100714.38;6250637;22;48249;-77
2022/06/19 03:41:54;;;;;;;;;13.00;12.50;;;;;20.73;51.84;100745.63;6279562;22;45314;-77
2022/06/19 03:44:20;;;;;;;;;15.50;14.25;;;;;20.69;52.03;100736.88;6279890;22;45223;-77
2022/06/19 03:46:45;;;;;;;;;15.25;12.50;;;;;20.69;52.37;100727.97;6279631;22;45286;-77
2022/06/19 03:49:10;;;;;;;;;12.50;11.75;;;;;;;;6279465;22;45436;-77
2022/06/19 03:51:36;;;;;;;;;14.00;12.00;;;;;20.64;52.08;100713.94;6279469;22;45330;-77
2022/06/19 03:54:02;;;;;;;;;15.00;13.75;;;;;20.54;52.13;100705.47;6251676;22;45399;-77
2022/06/19 03:56:31;;;;;;;;;20.75;17.25;;;;;20.47;52.00;100687.91;6279600;22;45353;-77
2022/06/19 03:58:57;;;;;;;;;13.25;12.00;;;;;20.40;52.31;100660.59;6279042;22;46162;-77
2022/06/19 04:01:24;;;;;;;;;17.25;14.75;;;;;20.33;52.40;100634.22;6279224;22;45238;-77
2022/06/19 04:03:51;;;;;;;;;19.00;14.50;;;;;20.24;52.65;100635.50;6279248;22;45208;-77
2022/06/19 04:06:19;;;;;;;;;9.50;9.50;;;;;20.19;53.01;100669.59;6279361;22;45337;-77
2022/06/19 04:08:46;;;;;;;;;14.50;11.50;;;;;20.18;52.75;100684.78;6277508;22;47467;-77
2022/06/19 04:11:12;;;;;;;;;16.75;13.75;;;;;20.21;53.12;100710.50;6279552;22;45164;-78
2022/06/19 04:13:37;;;;;;;;;18.50;13.50;;;;;20.29;53.10;100735.09;6279356;22;45449;-77
2022/06/19 04:16:05;;;;;;;;;19.00;14.50;;;;;20.39;52.85;100731.03;6279497;22;45124;-77
2022/06/19 04:18:32;;;;;;;;;14.75;11.75;;;;;20.43;53.20;100715.75;6251370;22;46345;-77
2022/06/19 04:20:58;;;;;;;;;14.25;13.75;;;;;20.46;53.39;100688.88;6251223;22;45805;-77
2022/06/19 04:23:25;;;;;;;;;16.50;14.00;;;;;20.47;53.55;100663.84;6279368;22;45302;-77
2022/06/19 04:25:52;;;;;;;;;14.75;13.75;;;;;20.41;54.25;100643.59;6277152;22;45184;-77
2022/06/19 04:28:18;;;;;;;;;14.25;14.00;;;;;20.41;54.48;100602.63;6279239;22;45202;-77
2022/06/19 04:30:46;;;;;;;;;14.50;13.00;;;;;20.43;54.30;100577.56;6279394;22;45093;-77
2022/06/19 04:33:13;;;;;;;;;11.25;10.50;;;;;20.44;55.24;100597.13;6251650;22;45362;-77
2022/06/19 04:35:39;;;;;;;;;11.50;11.50;;;;;20.41;55.06;100677.50;6279939;22;45292;-77
2022/06/19 04:38:04;;;;;;;;;13.00;11.25;;;;;20.44;54.75;100672.00;6251537;22;46728;-77
2022/06/19 04:40:29;;;;;;;;;11.00;11.00;;;;;20.50;54.38;100738.59;6279343;22;45077;-77
2022/06/19 04:42:55;;;;;;;;;12.00;10.75;;;;;20.55;54.66;100717.88;6279580;22;45232;-77
2022/06/19 04:45:20;;;;;;;;;19.00;16.50;;;;;20.54;54.95;100629.72;6251315;22;45295;-77
2022/06/19 04:47:46;;;;;;;;;17.75;13.25;;;;;20.56;55.17;100633.19;6280927;22;45265;-76
2022/06/19 04:50:11;;;;;;;;;11.75;11.75;;;;;20.55;54.44;100652.84;6253047;22;45086;-77
2022/06/19 04:52:36;;;;;;;;;10.00;8.75;;;;;20.53;54.70;100615.44;6248039;22;45697;-77
2022/06/19 04:55:02;;;;;;;;;10.50;9.50;;;;;20.48;54.57;100593.38;6251067;22;45089;-77
2022/06/19 04:57:28;;;;;;;;;10.50;9.25;;;;;20.45;54.71;100658.59;6251382;22;45215;-76
2022/06/19 04:59:53;;;;;;;;;12.25;10.25;;;;;20.48;54.31;100700.38;6251645;22;45206;-77
2022/06/19 05:02:18;;;;;;;;;15.25;14.25;;;;;20.46;54.96;100604.16;6248963;22;45181;-78
2022/06/19 05:04:49;;;;;;;;;11.50;11.50;;;;;20.43;55.02;100579.38;6248614;22;45557;-77
2022/06/19 05:07:14;;;;;;;;;11.25;11.00;;;;;20.42;54.69;100601.69;6271913;22;46230;-78
2022/06/19 05:09:40;;;;;;;;;10.25;10.00;;;;;20.44;54.31;100618.53;6246291;22;45142;-77
2022/06/19 05:12:05;;;;;;;;;7.50;7.25;;;;;20.47;55.04;100631.75;6272032;22;45196;-77
2022/06/19 05:14:31;;;;;;;;;11.25;9.25;;;;;20.49;54.79;100636.09;6248607;22;45143;-77
2022/06/19 05:16:56;;;;;;;;;14.00;12.00;;;;;20.53;54.53;100671.59;6246479;22;46306;-77
2022/06/19 05:19:21;;;;;;;;;10.50;9.00;;;;;20.55;54.67;100672.41;6247938;22;45229;-77
2022/06/19 05:21:46;;;;;;;;;13.75;10.75;;;;;20.56;54.81;100650.09;6248287;22;45584;-77
2022/06/19 05:24:12;;;;;;;;;9.00;7.50;;;;;20.61;54.68;100642.72;6248055;22;45159;-78
2022/06/19 05:26:37;;;;;;;;;8.00;7.00;;;;;20.66;54.60;100611.28;6246378;22;47283;-78
2022/06/19 05:29:04;;;;;;;;;7.75;7.75;;;;;20.60;54.51;100579.44;6247849;22;45249;-78
2022/06/19 05:31:29;;;;;;;;;7.50;7.50;;;;;20.53;54.29;100567.28;6248603;22;45206;-77
2022/06/19 05:33:55;;;;;;;;;7.25;6.50;;;;;20.48;54.66;100550.59;6245682;22;45550;-77
2022/06/19 05:36:22;;;;;;;;;7.75;7.00;;;;;20.43;54.08;100564.19;6247993;22;45491;-77
2022/06/19 05:38:47;;;;;;;;;3.00;3.00;;;;;20.33;54.26;100564.69;6248084;22;45366;-76
2022/06/19 05:41:13;;;;;;;;;6.50;6.50;;;;;20.19;54.91;100578.72;6248068;22;45423;-77
2022/06/19 05:43:39;;;;;;;;;6.50;4.75;;;;;20.12;55.13;100569.22;6220279;22;45979;-77
2022/06/19 05:46:10;;;;;;;;;4.75;4.75;;;;;20.04;54.94;100585.63;6220273;22;47135;-77
2022/06/19 05:48:36;;;;;;;;;8.00;6.25;;;;;19.99;54.84;100609.00;6247898;22;45352;-77
2022/06/19 05:51:20;;;;;;;;;10.00;5.50;;;;;19.98;55.68;100591.25;6246384;22;45363;-77
2022/06/19 05:53:49;;;;;;;;;8.75;6.25;;;;;19.96;54.98;100545.00;6247358;22;45276;-76
2022/06/19 05:56:15;;;;;;;;;8.00;7.25;;;;;19.96;55.17;100511.13;6247232;22;45415;-77
2022/06/19 05:58:41;;;;;;;;;6.75;5.50;;;;;19.94;55.14;100510.38;6220971;22;45269;-77
2022/06/19 06:01:07;;;;;;;;;8.25;5.75;;;;;19.95;55.17;100504.06;6247994;22;45420;-77
2022/06/19 06:03:34;;;;;;;;;5.25;4.75;;;;;19.95;55.27;100513.91;6219728;22;45206;-78
2022/06/19 06:06:10;;;;;;;;;6.25;5.00;;;;;19.90;54.82;100503.41;6248090;22;45268;-78
2022/06/19 06:08:36;;;;;;;;;10.50;5.00;;;;;19.91;55.17;100482.91;6247849;22;45299;-78
2022/06/19 06:11:02;;;;;;;;;4.25;3.50;;;;;19.93;54.64;100430.25;6246108;22;45429;-78
2022/06/19 06:13:43;;;;;;;;;8.00;4.75;;;;;19.98;54.90;100436.25;6248137;22;45572;-78
2022/06/19 06:16:11;;;;;;;;;5.75;4.75;;;;;19.99;54.71;100437.97;6245709;22;47192;-78
2022/06/19 06:18:36;;;;;;;;;6.00;3.50;;;;;19.96;54.55;100476.41;6245630;22;45283;-78
2022/06/19 06:21:05;;;;;;;;;11.25;5.75;;;;;19.92;54.64;100504.22;6256609;22;45283;-78
2022/06/19 06:23:31;;;;;;;;;3.75;3.75;;;;;19.93;54.71;100548.69;6246166;22;45417;-78
2022/06/19 06:26:01;;;;;;;;;5.00;4.00;;;;;19.97;55.39;100569.00;6246118;22;47995;-78
2022/06/19 06:28:28;;;;;;;;;4.00;4.00;;;;;20.03;54.80;100635.53;6245589;22;45823;-77
2022/06/19 06:30:53;;;;;;;;;3.50;3.00;;;;;20.05;54.30;100644.34;6248254;22;45198;-78
2022/06/19 06:33:19;;;;;;;;;4.25;4.25;;;;;20.07;54.52;100672.81;6238065;22;45501;-78
2022/06/19 06:35:44;;;;;;;;;5.25;5.25;;;;;20.06;54.13;100602.44;6248150;22;46247;-77
2022/06/19 06:38:10;;;;;;;;;4.75;4.75;;;;;20.08;54.64;100663.88;6271759;22;45200;-78
2022/06/19 06:40:35;;;;;;;;;5.00;4.25;;;;;20.08;54.01;100691.47;6248279;22;45334;-78
2022/06/19 06:43:01;;;;;;;;;4.00;2.25;;;;;20.06;54.03;100658.59;6253990;22;45214;-77
2022/06/19 06:45:26;;;;;;;;;5.00;4.00;;;;;20.05;54.79;100647.03;6245970;22;46665;-77
2022/06/19 06:47:52;;;;;;;;;8.50;6.00;;;;;20.11;54.97;100600.44;6246364;22;45149;-78
2022/06/19 06:50:18;;;;;;;;;11.00;10.00;;;;;20.11;54.63;100552.31;6248237;22;45488;-78
2022/06/19 06:52:43;;;;;;;;;6.25;6.25;;;;;20.00;55.23;100536.78;6258800;22;45568;-78
2022/06/19 06:55:10;;;;;;;;;8.00;7.00;;;;;19.93;55.07;100566.53;6279042;22;45211;-77
2022/06/19 06:57:35;;;;;;;;;8.50;7.25;;;;;19.89;55.08;100600.56;6278752;22;45401;-78
2022/06/19 07:00:00;;;;;;;;;6.00;5.75;;;;;19.76;55.80;100554.81;6279125;22;45211;-78
2022/06/19 07:02:28;;;;;;;;;8.25;7.00;;;;;19.74;55.81;100511.25;6276862;22;45223;-77
2022/06/19 07:04:55;;;;;;;;;9.25;7.00;;;;;19.82;56.01;100529.63;6278678;22;45377;-77
2022/06/19 07:07:20;;;;;;;;;7.25;6.00;;;;;19.82;55.62;100529.63;6278514;22;45103;-77
2022/06/19 07:09:45;;;;;;;;;4.00;3.00;;;;;19.74;55.93;100588.72;6278765;22;45076;-77
2022/06/19 07:12:11;;;;;;;;;3.00;3.00;;;;;19.64;55.97;100594.50;6250929;22;45197;-78
2022/06/19 07:14:36;;;;;;;;;4.75;4.75;;;;;19.64;56.07;100615.88;6279814;22;46254;-77
2022/06/19 07:17:02;;;;;;;;;4.75;4.50;;;;;19.64;56.18;100645.25;6280227;22;45108;-77
2022/06/19 07:19:27;;;;;;;;;3.00;1.00;;;;;19.63;56.05;100619.50;6251781;22;45342;-77
2022/06/19 07:21:52;;;;;;;;;6.25;4.00;;;;;19.66;55.85;100635.38;6276603;22;45219;-77
2022/06/19 07:24:18;;;;;;;;;6.25;4.00;;;;;19.69;56.31;100576.50;6277532;22;47344;-77
2022/06/19 07:26:43;;;;;;;;;5.50;5.00;;;;;19.75;56.44;100606.50;6251687;22;45230;-77
2022/06/19 07:29:09;;;;;;;;;3.00;3.00;;;;;19.83;56.40;100684.53;6252567;22;45477;-77
2022/06/19 07:31:36;;;;;;;;;4.25;3.00;;;;;19.80;55.96;100734.53;6252926;22;45466;-78
2022/06/19 07:34:01;;;;;;;;;6.00;6.00;;;;;19.79;55.68;100746.16;6279887;22;45362;-77
2022/06/19 07:36:27;;;;;;;;;5.50;3.75;;;;;19.75;55.71;100758.78;6279752;22;45271;-78
2022/06/19 07:38:52;;;;;;;;;6.00;4.50;;;;;19.76;55.62;100765.84;6252331;22;45196;-78
2022/06/19 07:41:17;;;;;;;;;5.00;4.00;;;;;19.81;55.71;100726.44;6279658;22;45366;-77
2022/06/19 07:43:46;;;;;;;;;3.25;3.25;;;;;19.89;55.44;100685.16;6277566;22;46942;-78
2022/06/19 07:46:12;;;;;;;;;5.00;4.00;;;;;20.04;55.98;100719.25;6279710;22;45167;-77
2022/06/19 07:51:25;;;;;;;;;3.00;3.00;;;;;20.24;54.71;100764.69;6278755;22;45204;-77
2022/06/19 07:53:51;;;;;;;;;3.00;3.00;;;;;20.26;54.78;100789.56;6279087;22;45367;-78
2022/06/19 07:56:16;;;;;;;;;5.00;3.75;;;;;20.25;54.63;100822.56;6279450;22;45287;-77
2022/06/19 07:58:42;;;;;;;;;5.75;4.50;;;;;20.23;54.30;100826.25;6279832;22;45445;-78
2022/06/19 08:01:07;;;;;;;;;6.25;3.75;;;;;20.20;53.92;100867.34;6279518;22;45192;-78
2022/06/19 08:03:32;;;;;;;;;4.00;4.00;;;;;20.16;53.65;100921.03;6279183;22;45322;-78
2022/06/19 08:05:58;;;;;;;;;5.50;3.25;;;;;20.10;53.94;100908.78;6251634;22;45284;-78
2022/06/19 08:08:27;;;;;;;;;5.25;5.25;;;;;20.01;53.71;100816.44;6279619;22;45192;-79
2022/06/19 08:10:54;;;;;;;;;7.00;4.50;;;;;19.84;54.70;100770.88;6279403;22;45386;-78
2022/06/19 08:13:21;;;;;;;;;7.25;6.00;;;;;19.82;55.29;100727.31;6279444;22;45204;-78
2022/06/19 08:15:49;;;;;;;;;4.00;4.00;;;;;19.97;55.24;100725.81;6279207;22;45263;-77
2022/06/19 08:18:15;;;;;;;;;7.25;5.00;;;;;20.18;55.90;100687.44;6279623;22;45651;-78
2022/06/19 08:20:40;;;;;;;;;6.00;5.00;;;;;20.46;55.96;100632.72;6279313;22;45183;-78
2022/06/19 08:23:05;;;;;;;;;5.00;5.00;;;;;20.69;56.26;100656.59;6279419;22;46405;-78
2022/06/19 08:25:32;;;;;;;;;5.00;5.00;;;;;20.87;55.64;100652.16;6251192;22;45271;-78
2022/06/19 08:27:57;;;;;;;;;6.00;6.00;;;;;20.98;55.09;100648.09;6251686;22;45122;-76
2022/06/19 08:30:27;;;;;;;;;5.00;5.00;;;;;21.04;55.22;100688.84;6279562;22;45432;-78
2022/06/19 08:32:53;;;;;;;;;7.50;5.75;;;;;21.03;55.04;100679.06;6279137;22;45463;-78
2022/06/19 08:35:19;;;;;;;;;11.50;7.00;;;;;21.06;54.40;100659.31;6279300;22;45389;-77
2022/06/19 08:37:49;;;;;;;;;9.50;8.75;;;;;21.11;54.67;100650.09;6251291;22;45145;-78
2022/06/19 08:40:49;;;;;;;;;23.25;23.00;;;;;21.18;54.16;100663.22;6278819;22;45233;-78
2022/06/19 08:43:27;;;;;;;;;10.25;9.75;;;;;21.18;53.78;100663.22;6251436;22;48423;-77
2022/06/19 08:46:17;;;;;;;;;8.50;6.50;;;;;21.17;54.27;100637.38;6279570;22;45177;-78
2022/06/19 08:48:55;;;;;;;;;12.25;10.00;;;;;21.25;53.85;100633.38;6251192;22;45320;-77
2022/06/19 08:51:50;;;;;;;;;12.50;9.25;;;;;21.22;53.57;100633.50;6278779;22;45169;-77
2022/06/19 08:54:40;;;;;;;;;12.00;10.00;;;;;21.22;53.86;100657.63;6279374;22;46264;-77
2022/06/19 08:57:18;;;;;;;;;9.00;9.00;;;;;21.19;53.14;100664.94;6279039;22;45351;-77
2022/06/19 09:00:03;;;;;;;;;9.75;7.75;;;;;21.02;53.48;100653.25;6279266;22;45280;-77
2022/06/19 09:02:41;;;;;;;;;7.50;7.50;;;;;21.03;53.09;100654.09;6276569;22;45450;-77
2022/06/19 09:05:50;;;;;;;;;6.50;5.25;;;;;21.10;53.33;100650.19;6276770;22;47443;-77
2022/06/19 09:08:49;;;;;;;;;8.50;6.50;;;;;21.26;53.39;100644.97;6251079;22;45403;-77
2022/06/19 09:11:59;;;;;;;;;10.50;8.75;;;;;21.49;53.70;100662.56;6251265;22;45307;-77
2022/06/19 09:14:55;;;;;;;;;9.25;8.75;;;;;21.74;52.73;100681.81;6279566;22;45141;-78
2022/06/19 09:17:50;;;;;;;;;11.50;7.50;;;;;21.87;52.21;100691.94;6247404;22;47546;-77
2022/06/19 09:20:42;;;;;;;;;8.00;8.00;;;;;21.95;51.82;100705.81;6226256;22;45530;-77
2022/06/19 09:23:15;;;;;;;;;10.25;7.75;;;;;22.09;52.24;100721.16;6251296;22;45263;-78
2022/06/19 09:25:55;;;;;;;;;8.75;7.75;;;;;22.17;52.06;100748.44;6251367;22;45197;-78
2022/06/19 09:28:51;;;;;;;;;10.50;10.50;;;;;22.20;50.83;100751.00;6279099;22;45371;-79
2022/06/19 09:31:26;;;;;;;;;10.25;8.50;;;;;22.20;50.99;100772.44;6278926;22;45442;-78
2022/06/19 09:34:09;;;;;;;;;17.75;16.75;;;;;22.20;51.46;100764.41;6279198;22;45424;-78
2022/06/19 09:36:48;;;;;;;;;13.25;11.00;;;;;22.29;50.79;100771.97;6278634;22;45127;-77
2022/06/19 09:39:27;;;;;;;;;12.75;10.25;;;;;22.33;50.75;100784.28;6279057;22;45398;-77
2022/06/19 09:42:09;;;;;;;;;11.50;8.00;;;;;22.39;50.56;100781.28;6278643;22;45204;-78
2022/06/19 09:44:46;;;;;;;;;9.00;9.00;;;;;22.50;50.57;100787.88;6279505;22;45349;-78
2022/06/19 09:47:41;;;;;;;;;11.25;10.00;;;;;22.61;50.23;100786.41;6279328;22;45153;-77
2022/06/19 09:50:30;;;;;;;;;11.25;11.00;;;;;22.73;49.67;100798.28;6278468;22;45561;-78
2022/06/19 09:53:21;;;;;;;;;11.25;7.50;;;;;22.88;50.10;100797.47;6278107;22;45423;-78
2022/06/19 09:55:51;;;;;;;;;9.25;8.75;;;;;23.05;49.35;100799.25;6279171;22;45165;-77
2022/06/19 09:58:24;;;;;;;;;11.75;11.00;;;;;23.17;49.31;100800.38;6278813;22;45336;-78
2022/06/19 10:00:55;;;;;;;;;12.75;11.00;;;;;23.32;49.02;100795.97;6278818;22;46373;-77
2022/06/19 10:03:41;;;;;;;;;12.00;11.00;;;;;23.48;48.91;100796.84;6250805;22;45619;-78
2022/06/19 10:06:20;;;;;;;;;8.00;8.00;;;;;23.68;48.39;100787.66;6279017;22;45254;-77
2022/06/19 10:09:20;;;;;;;;;14.00;13.00;;;;;23.74;48.04;100773.03;6250945;22;45444;-78
2022/06/19 10:11:47;;;;;;;;;18.25;13.75;;;;;23.69;48.00;100772.38;6247329;22;46129;-78
2022/06/19 10:14:42;;;;;;;;;13.00;13.00;;;;;23.62;47.55;100765.63;6251050;22;46124;-78
2022/06/19 10:17:36;;;;;;;;;15.75;13.75;;;;;23.50;47.91;100756.47;6251230;22;45252;-78
2022/06/19 10:20:09;;;;;;;;;12.50;11.50;;;;;23.43;48.41;100752.38;6247153;22;45229;-78
2022/06/19 10:22:37;;;;;;;;;16.00;13.75;;;;;23.42;48.40;100754.22;6278556;22;46331;-78
2022/06/19 10:25:38;;;;;;;;;11.75;11.75;;;;;23.42;48.40;100742.59;6275363;22;45191;-77
2022/06/19 10:28:12;;;;;;;;;12.25;12.25;;;;;23.40;48.15;100737.31;6278983;22;45445;-78
2022/06/19 10:31:05;;;;;;;;;14.75;14.75;;;;;23.39;48.29;100730.22;6276641;22;45464;-78
2022/06/19 10:33:33;;;;;;;;;13.00;13.00;;;;;23.39;48.74;100729.31;6250643;22;47007;-78
2022/06/19 10:36:05;;;;;;;;;14.75;13.50;;;;;23.35;48.61;100720.56;6276809;22;45957;-78
2022/06/19 10:38:39;;;;;;;;;16.50;16.00;;;;;23.34;48.85;100725.09;6278376;22;45373;-78
2022/06/19 10:44:22;;;;;;;;;16.25;15.25;;;;;23.31;48.61;100735.16;6278298;22;45154;-78
2022/06/19 10:47:01;;;;;;;;;19.25;17.50;;;;;23.34;48.85;100733.16;6278483;22;45358;-78
2022/06/19 10:49:34;;;;;;;;;15.75;15.00;;;;;23.44;48.93;100737.97;6250254;22;45252;-78
2022/06/19 10:52:14;;;;;;;;;15.25;14.50;;;;;23.54;49.36;100742.72;6278086;22;45329;-78
2022/06/19 10:54:56;;;;;;;;;13.75;13.75;;;;;23.64;48.83;100740.38;6250431;22;48127;-78
2022/06/19 10:57:39;;;;;;;;;11.25;11.00;;;;;23.75;49.16;100747.88;6278849;22;45255;-77
2022/06/19 11:00:06;;;;;;;;;16.00;15.25;;;;;23.81;48.47;100747.50;6278335;22;45437;-77
2022/06/19 11:05:49;;;;;;;;;12.25;11.50;;;;;23.90;48.54;100746.09;6278354;22;45691;-78
2022/06/19 11:08:18;;;;;;;;;14.00;13.25;;;;;23.91;48.49;100747.81;6250555;22;45126;-78
2022/06/19 11:10:52;;;;;;;;;18.75;13.50;;;;;23.95;48.93;100755.63;6251085;22;45338;-78
2022/06/19 11:13:18;;;;;;;;;14.00;13.00;;;;;24.13;48.33;100758.16;6278758;22;45255;-78
2022/06/19 11:16:01;;;;;;;;;8.75;7.25;;;;;24.29;47.92;100761.66;6250616;22;46978;-78
2022/06/19 11:19:31;;;;;;;;;11.25;10.00;;;;;24.40;47.90;100764.56;6278029;22;45473;-77
2022/06/19 11:21:55;;;;;;;;;16.75;14.00;;;;;24.65;47.92;100781.94;6275008;22;45436;-78
2022/06/19 11:24:28;;;;;;;;;14.50;13.25;;;;;24.81;46.82;100771.06;6278105;22;45177;-78
2022/06/19 11:26:57;;;;;;;;;19.25;16.75;;;;;24.87;46.16;100762.59;6276274;22;47102;-78
2022/06/19 11:29:26;;;;;;;;;19.00;18.00;;;;;24.76;46.21;100747.13;6278463;22;45172;-78
2022/06/19 11:32:13;;;;;;;;;11.75;11.75;;;;;24.62;46.17;100745.28;6278109;22;45350;-78
2022/06/19 11:34:44;;;;;;;;;13.25;12.75;;;;;24.67;45.94;100755.75;6250268;22;45299;-77
2022/06/19 11:37:21;;;;;;;;;11.50;11.50;;;;;24.65;45.58;100757.69;6249746;22;47909;-78
2022/06/19 11:39:51;;;;;;;;;14.00;12.50;;;;;24.60;45.33;100738.28;6249835;22;45431;-78
2022/06/19 11:42:31;;;;;;;;;13.25;12.50;;;;;24.62;45.61;100728.28;6278409;22;45268;-77
2022/06/19 11:45:12;;;;;;;;;12.25;11.25;;;;;24.54;45.62;100733.25;6276026;22;45457;-77